createdAt,value
2022-10-28T00:00:59.553Z,13.55
2022-10-28T00:01:59.573Z,13.53
2022-10-28T00:03:00.188Z,13.53
2022-10-28T00:03:59.029Z,13.48
2022-10-28T00:04:59.828Z,13.4
2022-10-28T00:05:59.526Z,13.42
2022-10-28T00:06:58.981Z,13.42
2022-10-28T00:07:59.989Z,13.37
2022-10-28T00:08:59.215Z,13.29
2022-10-28T00:09:59.206Z,13.31
2022-10-28T00:10:59.447Z,13.35
2022-10-28T00:11:59.577Z,13.35
2022-10-28T00:12:58.916Z,13.39
2022-10-28T00:13:59.169Z,13.48
2022-10-28T00:14:59.153Z,13.5
2022-10-28T00:15:58.885Z,13.53
2022-10-28T00:16:59.397Z,13.72
2022-10-28T00:17:59.552Z,13.63
2022-10-28T00:18:59.050Z,13.72
2022-10-28T00:19:59.736Z,13.81
2022-10-28T00:20:59.325Z,13.76
2022-10-28T00:21:59.371Z,13.78
2022-10-28T00:22:59.527Z,13.88
2022-10-28T00:23:59.272Z,13.79
2022-10-28T00:24:59.260Z,13.9
2022-10-28T00:25:59.913Z,13.87
2022-10-28T00:26:59.492Z,13.93
2022-10-28T00:27:59.571Z,13.9
2022-10-28T00:28:58.974Z,13.91
2022-10-28T00:29:59.462Z,13.86
2022-10-28T00:30:59.204Z,13.88
2022-10-28T00:31:58.967Z,13.86
2022-10-28T00:32:59.497Z,13.87
2022-10-28T00:33:59.184Z,13.83
2022-10-28T00:34:59.159Z,13.81
2022-10-28T00:35:59.183Z,13.68
2022-10-28T00:36:59.432Z,13.78
2022-10-28T00:37:59.483Z,13.81
2022-10-28T00:38:59.390Z,13.69
2022-10-28T00:39:59.117Z,13.69
2022-10-28T00:40:58.851Z,13.73
2022-10-28T00:41:59.113Z,13.73
2022-10-28T00:42:59.384Z,13.78
2022-10-28T00:43:59.345Z,13.86
2022-10-28T00:44:59.072Z,13.81
2022-10-28T00:45:59.058Z,13.78
2022-10-28T00:46:58.819Z,13.76
2022-10-28T00:47:59.702Z,13.84
2022-10-28T00:48:59.304Z,13.86
2022-10-28T00:49:59.020Z,13.84
2022-10-28T00:50:59.009Z,13.88
2022-10-28T00:51:58.779Z,13.83
2022-10-28T00:52:59.283Z,13.78
2022-10-28T00:53:59.008Z,13.84
2022-10-28T00:54:59.231Z,13.81
2022-10-28T00:55:59.228Z,13.73
2022-10-28T00:56:58.970Z,13.79
2022-10-28T00:57:59.271Z,13.81
2022-10-28T00:58:58.942Z,13.81
2022-10-28T00:59:58.683Z,13.88
2022-10-28T01:00:58.924Z,13.86
2022-10-28T01:01:59.707Z,13.86
2022-10-28T01:02:58.896Z,13.95
2022-10-28T01:03:58.892Z,13.97
2022-10-28T01:04:59.146Z,14.01
2022-10-28T01:05:59.143Z,14.01
2022-10-28T01:06:58.609Z,14.03
2022-10-28T01:07:59.587Z,14.06
2022-10-28T01:09:03.973Z,14.12
2022-10-28T01:09:59.127Z,14.11
2022-10-28T01:10:59.091Z,14.11
2022-10-28T01:11:59.072Z,14.2
2022-10-28T01:12:59.262Z,14.2
2022-10-28T01:13:59.062Z,14.13
2022-10-28T01:14:58.798Z,14.08
2022-10-28T01:15:58.528Z,14.21
2022-10-28T01:16:58.775Z,14.13
2022-10-28T01:17:58.765Z,14.16
2022-10-28T01:18:59.022Z,14.13
2022-10-28T01:19:58.755Z,14.08
2022-10-28T01:20:59.001Z,14.12
2022-10-28T01:21:59.115Z,14.06
2022-10-28T01:22:59.298Z,14.03
2022-10-28T01:23:58.737Z,14.03
2022-10-28T01:24:59.073Z,14.01
2022-10-28T01:25:58.980Z,13.93
2022-10-28T01:26:58.945Z,14.01
2022-10-28T01:27:58.677Z,14.03
2022-10-28T01:28:58.999Z,13.99
2022-10-28T01:29:58.661Z,13.99
2022-10-28T01:30:59.055Z,14.02
2022-10-28T01:31:58.643Z,14.01
2022-10-28T01:32:59.030Z,14.06
2022-10-28T01:34:58.615Z,13.95
2022-10-28T01:35:58.867Z,14.01
2022-10-28T01:36:58.598Z,14.05
2022-10-28T01:37:59.214Z,14.08
2022-10-28T01:38:58.836Z,14.11
2022-10-28T01:39:58.590Z,14.08
2022-10-28T01:40:58.856Z,14.06
2022-10-28T01:41:58.577Z,14.12
2022-10-28T01:42:58.804Z,14.12
2022-10-28T01:43:58.532Z,14.12
2022-10-28T01:44:58.525Z,14.09
2022-10-28T01:45:58.515Z,14.05
2022-10-28T01:46:58.759Z,14.08
2022-10-28T01:47:59.035Z,14.16
2022-10-28T01:48:58.748Z,14.23
2022-10-28T01:49:58.951Z,14.15
2022-10-28T01:50:58.737Z,14.08
2022-10-28T01:51:58.717Z,14.12
2022-10-28T01:52:58.824Z,14.08
2022-10-28T01:53:58.441Z,14.01
2022-10-28T01:54:58.179Z,13.97
2022-10-28T01:55:58.447Z,14.03
2022-10-28T01:56:58.436Z,13.99
2022-10-28T01:57:58.692Z,13.97
2022-10-28T01:58:58.402Z,14.01
2022-10-28T01:59:58.637Z,13.94
2022-10-28T02:00:58.685Z,13.91
2022-10-28T02:01:58.862Z,13.91
2022-10-28T02:02:59.064Z,13.91
2022-10-28T02:03:58.111Z,13.94
2022-10-28T02:04:58.339Z,13.91
2022-10-28T02:05:58.594Z,13.94
2022-10-28T02:06:58.328Z,13.97
2022-10-28T02:07:58.066Z,13.9
2022-10-28T02:08:58.046Z,13.95
2022-10-28T02:09:58.041Z,13.95
2022-10-28T02:10:58.288Z,14.02
2022-10-28T02:11:58.571Z,14.05
2022-10-28T02:12:58.978Z,14.02
2022-10-28T02:13:58.548Z,13.99
2022-10-28T02:14:58.341Z,14.02
2022-10-28T02:15:58.251Z,13.95
2022-10-28T02:16:58.235Z,13.91
2022-10-28T02:17:59.359Z,13.83
2022-10-28T02:18:58.218Z,13.93
2022-10-28T02:19:57.958Z,13.83
2022-10-28T02:20:58.204Z,13.79
2022-10-28T02:21:58.191Z,13.81
2022-10-28T02:22:57.938Z,13.81
2022-10-28T02:23:58.172Z,13.73
2022-10-28T02:24:58.165Z,13.66
2022-10-28T02:25:58.163Z,13.68
2022-10-28T02:26:58.146Z,13.54
2022-10-28T02:27:59.130Z,13.53
2022-10-28T02:28:58.156Z,13.51
2022-10-28T02:29:58.420Z,13.58
2022-10-28T02:30:58.672Z,13.48
2022-10-28T02:31:58.099Z,13.55
2022-10-28T02:32:58.810Z,13.58
2022-10-28T02:33:58.077Z,13.55
2022-10-28T02:34:58.327Z,13.55
2022-10-28T02:35:58.064Z,13.55
2022-10-28T02:36:57.792Z,13.51
2022-10-28T02:37:57.787Z,13.53
2022-10-28T02:38:58.296Z,13.51
2022-10-28T02:39:58.030Z,13.5
2022-10-28T02:40:58.006Z,13.48
2022-10-28T02:41:58.259Z,13.5
2022-10-28T02:42:58.868Z,13.47
2022-10-28T02:43:58.037Z,13.44
2022-10-28T02:44:58.000Z,13.42
2022-10-28T02:45:57.990Z,13.44
2022-10-28T02:46:58.218Z,13.42
2022-10-28T02:47:57.953Z,13.44
2022-10-28T02:48:58.194Z,13.4
2022-10-28T02:49:57.670Z,13.37
2022-10-28T02:50:58.185Z,13.44
2022-10-28T02:51:57.920Z,13.37
2022-10-28T02:52:58.404Z,13.45
2022-10-28T02:53:57.900Z,13.4
2022-10-28T02:54:57.888Z,13.39
2022-10-28T02:55:57.878Z,13.37
2022-10-28T02:56:57.608Z,13.28
2022-10-28T02:57:58.298Z,13.31
2022-10-28T02:58:57.844Z,13.32
2022-10-28T02:59:58.114Z,13.25
2022-10-28T03:00:58.371Z,13.32
2022-10-28T03:01:58.745Z,13.29
2022-10-28T03:02:57.808Z,13.31
2022-10-28T03:03:58.069Z,13.31
2022-10-28T03:04:57.799Z,13.25
2022-10-28T03:05:57.783Z,13.21
2022-10-28T03:06:57.523Z,13.2
2022-10-28T03:07:58.447Z,13.13
2022-10-28T03:08:57.504Z,13.2
2022-10-28T03:09:57.742Z,13.06
2022-10-28T03:10:57.730Z,13.09
2022-10-28T03:11:57.984Z,12.98
2022-10-28T03:12:57.983Z,12.94
2022-10-28T03:13:57.705Z,13.03
2022-10-28T03:14:57.949Z,13.03
2022-10-28T03:15:57.975Z,13.06
2022-10-28T03:16:57.959Z,13.1
2022-10-28T03:17:58.508Z,13.14
2022-10-28T03:18:57.872Z,13.28
2022-10-28T03:19:57.646Z,13.2
2022-10-28T03:21:01.720Z,13.21
2022-10-28T03:21:57.624Z,13.2
2022-10-28T03:22:58.501Z,13.24
2022-10-28T03:23:57.602Z,13.2
2022-10-28T03:24:57.616Z,13.24
2022-10-28T03:25:57.841Z,13.28
2022-10-28T03:26:57.589Z,13.31
2022-10-28T03:27:57.829Z,13.37
2022-10-28T03:28:58.505Z,13.36
2022-10-28T03:29:58.233Z,13.44
2022-10-28T03:30:57.968Z,13.45
2022-10-28T03:31:58.493Z,13.42
2022-10-28T03:50:02.125Z,13.42
2022-10-28T03:51:01.730Z,13.4
2022-10-28T03:52:01.980Z,13.32
2022-10-28T03:53:01.710Z,13.4
2022-10-28T03:54:01.435Z,13.37
2022-10-28T03:55:01.434Z,13.44
2022-10-28T03:56:01.926Z,13.48
2022-10-28T03:57:01.659Z,13.51
2022-10-28T03:58:02.135Z,13.45
2022-10-28T03:59:01.898Z,13.5
2022-10-28T04:00:01.635Z,13.45
2022-10-28T04:01:01.508Z,13.48
2022-10-28T04:02:01.853Z,13.57
2022-10-28T04:03:01.654Z,13.5
2022-10-28T04:04:01.324Z,13.55
2022-10-28T04:05:01.718Z,13.57
2022-10-28T04:06:02.030Z,13.51
2022-10-28T04:07:01.566Z,13.5
2022-10-28T04:08:01.544Z,13.54
2022-10-28T04:09:01.587Z,13.57
2022-10-28T04:10:01.539Z,13.6
2022-10-28T04:11:01.762Z,13.51
2022-10-28T04:12:01.970Z,13.53
2022-10-28T04:13:01.492Z,13.57
2022-10-28T04:14:01.479Z,13.55
2022-10-28T04:15:01.214Z,13.55
2022-10-28T04:16:01.720Z,13.62
2022-10-28T04:17:01.444Z,13.66
2022-10-28T04:18:01.437Z,13.6
2022-10-28T04:19:01.439Z,13.62
2022-10-28T04:20:01.419Z,13.65
2022-10-28T04:21:01.660Z,13.65
2022-10-28T04:22:01.724Z,13.6
2022-10-28T04:23:02.868Z,13.65
2022-10-28T04:24:01.390Z,13.68
2022-10-28T04:25:01.371Z,13.7
2022-10-28T04:26:01.619Z,13.72
2022-10-28T04:27:01.360Z,13.69
2022-10-28T04:28:01.651Z,13.58
2022-10-28T04:29:01.078Z,13.63
2022-10-28T04:30:01.578Z,13.65
2022-10-28T04:31:01.565Z,13.68
2022-10-28T04:32:01.337Z,13.66
2022-10-28T04:33:01.038Z,13.7
2022-10-28T04:34:01.033Z,13.62
2022-10-28T04:35:01.542Z,13.68
2022-10-28T04:36:01.268Z,13.7
2022-10-28T04:37:01.270Z,13.68
2022-10-28T04:38:01.955Z,13.63
2022-10-28T04:39:01.251Z,13.72
2022-10-28T04:40:01.236Z,13.7
2022-10-28T04:41:01.483Z,13.68
2022-10-28T04:42:01.214Z,13.69
2022-10-28T04:43:01.305Z,13.73
2022-10-28T04:44:01.193Z,13.72
2022-10-28T04:45:01.187Z,13.75
2022-10-28T04:46:01.185Z,13.72
2022-10-28T04:47:01.421Z,13.81
2022-10-28T04:48:01.150Z,13.84
2022-10-28T04:49:01.153Z,13.81
2022-10-28T04:50:01.391Z,13.81
2022-10-28T04:51:00.867Z,13.79
2022-10-28T04:52:00.868Z,13.7
2022-10-28T04:53:01.119Z,13.72
2022-10-28T04:54:01.435Z,13.72
2022-10-28T04:55:01.101Z,13.69
2022-10-28T04:56:01.075Z,13.65
2022-10-28T04:57:01.076Z,13.63
2022-10-28T04:58:00.811Z,13.75
2022-10-28T04:59:01.052Z,13.75
2022-10-28T05:00:01.302Z,13.68
2022-10-28T05:01:01.491Z,13.68
2022-10-28T05:02:01.428Z,13.73
2022-10-28T05:03:01.854Z,13.7
2022-10-28T05:04:01.006Z,13.68
2022-10-28T05:05:01.258Z,13.69
2022-10-28T05:06:01.245Z,13.7
2022-10-28T05:07:01.238Z,13.7
2022-10-28T05:08:01.497Z,13.7
2022-10-28T05:09:01.220Z,13.72
2022-10-28T05:10:01.271Z,13.68
2022-10-28T05:11:00.949Z,13.7
2022-10-28T05:12:00.679Z,13.58
2022-10-28T05:13:00.965Z,13.58
2022-10-28T05:14:00.923Z,13.58
2022-10-28T05:15:00.657Z,13.55
2022-10-28T05:16:01.156Z,13.48
2022-10-28T05:17:00.890Z,13.45
2022-10-28T05:18:00.928Z,13.45
2022-10-28T05:19:00.873Z,13.45
2022-10-28T05:20:01.205Z,13.4
2022-10-28T05:21:01.111Z,13.44
2022-10-28T05:22:00.588Z,13.4
2022-10-28T05:23:01.223Z,13.32
2022-10-28T05:24:00.822Z,13.31
2022-10-28T05:25:00.566Z,13.35
2022-10-28T05:26:01.127Z,13.35
2022-10-28T05:27:00.798Z,13.27
2022-10-28T05:28:00.532Z,13.2
2022-10-28T05:29:01.103Z,13.21
2022-10-28T05:30:01.023Z,13.24
2022-10-28T05:31:01.014Z,13.16
2022-10-28T05:32:00.700Z,13.2
2022-10-28T05:33:01.971Z,13.1
2022-10-28T05:34:00.989Z,13.13
2022-10-28T05:35:00.722Z,13.11
2022-10-28T05:36:00.967Z,13.25
2022-10-28T05:37:00.442Z,13.16
2022-10-28T05:38:00.717Z,13.09
2022-10-28T05:39:01.242Z,13.19
2022-10-28T05:40:00.413Z,13.13
2022-10-28T05:41:00.937Z,13.09
2022-10-28T05:42:01.187Z,13.14
2022-10-28T05:43:01.056Z,13.02
2022-10-28T05:44:00.651Z,13.16
2022-10-28T05:45:01.203Z,13.13
2022-10-28T05:46:00.886Z,13.16
2022-10-28T05:47:00.623Z,13.14
2022-10-28T05:48:01.211Z,13.2
2022-10-28T05:49:00.598Z,13.06
2022-10-28T05:50:00.851Z,13.13
2022-10-28T05:51:00.856Z,13.13
2022-10-28T05:52:00.580Z,13.19
2022-10-28T05:53:00.820Z,13.13
2022-10-28T05:54:00.564Z,13.13
2022-10-28T05:55:00.804Z,13.2
2022-10-28T05:56:00.284Z,13.19
2022-10-28T05:57:00.267Z,13.24
2022-10-28T05:58:01.747Z,13.14
2022-10-28T05:59:00.515Z,13.16
2022-10-28T06:00:00.758Z,13.16
2022-10-28T06:01:00.501Z,13.13
2022-10-28T06:02:00.815Z,13.03
2022-10-28T06:03:00.960Z,13.13
2022-10-28T06:04:00.695Z,13.09
2022-10-28T06:05:00.699Z,13.01
2022-10-28T06:06:00.179Z,13.06
2022-10-28T06:07:00.165Z,13.09
2022-10-28T06:08:00.159Z,13.09
2022-10-28T06:09:00.665Z,13.03
2022-10-28T06:10:00.397Z,12.99
2022-10-28T06:10:58.864Z,13.07
2022-10-28T06:11:59.098Z,13.09
2022-10-28T06:12:59.576Z,13.07
2022-10-28T06:13:59.150Z,13.1
2022-10-28T06:14:59.074Z,13.07
2022-10-28T06:15:58.557Z,12.99
2022-10-28T06:16:58.550Z,13.09
2022-10-28T06:17:58.799Z,12.96
2022-10-28T06:18:59.052Z,13.11
2022-10-28T06:19:58.538Z,13.02
2022-10-28T06:20:58.779Z,13.09
2022-10-28T06:21:59.033Z,13.11
2022-10-28T06:22:59.307Z,13.24
2022-10-28T06:23:58.499Z,13.19
2022-10-28T06:24:58.990Z,13.24
2022-10-28T06:25:59.852Z,13.24
2022-10-28T06:26:58.731Z,13.28
2022-10-28T06:27:59.257Z,13.17
2022-10-28T06:28:58.448Z,13.24
2022-10-28T06:29:59.036Z,13.14
2022-10-28T06:30:58.433Z,13.25
2022-10-28T06:31:58.969Z,13.31
2022-10-28T06:32:58.947Z,13.25
2022-10-28T06:33:58.660Z,13.24
2022-10-28T06:34:58.924Z,13.17
2022-10-28T06:35:58.644Z,13.27
2022-10-28T06:36:58.671Z,13.29
2022-10-28T06:37:59.123Z,13.29
2022-10-28T06:38:58.364Z,13.42
2022-10-28T06:39:58.612Z,13.44
2022-10-28T06:40:58.861Z,13.44
2022-10-28T06:41:58.853Z,13.5
2022-10-28T06:42:59.217Z,13.42
2022-10-28T06:43:58.592Z,13.48
2022-10-28T06:44:58.839Z,13.47
2022-10-28T06:45:58.886Z,13.48
2022-10-28T06:47:00.058Z,13.51
2022-10-28T06:48:00.311Z,13.51
2022-10-28T06:49:00.302Z,13.63
2022-10-28T06:50:00.287Z,13.6
2022-10-28T06:51:00.290Z,13.66
2022-10-28T06:52:00.315Z,13.65
2022-10-28T06:53:00.006Z,13.73
2022-10-28T06:54:00.259Z,13.69
2022-10-28T06:54:59.997Z,13.69
2022-10-28T06:55:59.985Z,13.7
2022-10-28T06:56:59.969Z,13.72
2022-10-28T06:58:00.705Z,13.72
2022-10-28T06:58:59.706Z,13.66
2022-10-28T06:59:59.689Z,13.78
2022-10-28T07:01:00.201Z,13.81
2022-10-28T07:02:00.682Z,13.93
2022-10-28T07:03:01.470Z,13.86
2022-10-28T07:04:00.181Z,13.88
2022-10-28T07:04:59.908Z,13.93
2022-10-28T07:05:59.643Z,13.94
2022-10-28T07:06:59.906Z,14.02
2022-10-28T07:08:00.637Z,13.99
2022-10-28T07:09:00.139Z,13.99
2022-10-28T07:09:59.609Z,14.08
2022-10-28T07:10:59.894Z,14.11
2022-10-28T07:12:07.066Z,14.21
2022-10-28T07:13:00.864Z,14.21
2022-10-28T07:13:59.826Z,14.28
2022-10-28T07:14:59.831Z,14.27
2022-10-28T07:15:59.562Z,14.39
2022-10-28T07:16:59.806Z,14.45
2022-10-28T07:18:00.238Z,14.57
2022-10-28T07:18:59.795Z,14.49
2022-10-28T07:19:59.783Z,14.57
2022-10-28T07:21:00.032Z,14.64
2022-10-28T07:21:59.765Z,14.8
2022-10-28T07:23:00.134Z,14.82
2022-10-28T07:24:00.024Z,14.86
2022-10-28T07:25:00.002Z,14.82
2022-10-28T07:25:59.821Z,14.97
2022-10-28T07:27:02.333Z,15
2022-10-28T07:28:00.571Z,15.01
2022-10-28T07:28:59.966Z,15.04
2022-10-28T07:29:59.448Z,15.05
2022-10-28T07:30:59.595Z,15.15
2022-10-28T07:31:59.932Z,15.13
2022-10-28T07:33:00.468Z,15.13
2022-10-28T07:34:00.020Z,15.23
2022-10-28T07:34:59.668Z,15.22
2022-10-28T07:35:59.668Z,15.31
2022-10-28T07:36:59.646Z,15.25
2022-10-28T07:37:59.899Z,15.27
2022-10-28T07:38:59.652Z,15.35
2022-10-28T07:39:59.884Z,15.38
2022-10-28T07:40:59.625Z,15.35
2022-10-28T07:41:59.360Z,15.44
2022-10-28T07:43:00.393Z,15.37
2022-10-28T07:43:59.593Z,15.4
2022-10-28T07:44:59.602Z,15.44
2022-10-28T07:45:59.914Z,15.43
2022-10-28T07:47:02.845Z,15.44
2022-10-28T07:47:59.821Z,15.47
2022-10-28T07:48:59.560Z,15.51
2022-10-28T07:49:59.883Z,15.44
2022-10-28T07:50:59.800Z,15.45
2022-10-28T07:51:59.526Z,15.52
2022-10-28T07:53:00.268Z,15.65
2022-10-28T07:53:59.769Z,15.62
2022-10-28T07:54:59.509Z,15.73
2022-10-28T07:55:59.760Z,15.77
2022-10-28T07:56:59.490Z,15.74
2022-10-28T07:58:00.179Z,15.77
2022-10-28T07:58:59.473Z,15.73
2022-10-28T07:59:59.725Z,15.75
2022-10-28T08:00:59.653Z,15.86
2022-10-28T08:02:00.009Z,15.89
2022-10-28T08:02:59.698Z,15.92
2022-10-28T08:03:59.687Z,15.89
2022-10-28T08:04:59.417Z,15.84
2022-10-28T08:06:04.418Z,15.89
2022-10-28T08:06:59.139Z,15.86
2022-10-28T08:08:00.057Z,15.88
2022-10-28T08:08:59.664Z,15.99
2022-10-28T08:09:59.622Z,15.95
2022-10-28T08:10:59.364Z,16.06
2022-10-28T08:11:59.616Z,16.04
2022-10-28T08:12:59.083Z,15.98
2022-10-28T08:13:59.339Z,15.99
2022-10-28T08:14:59.064Z,15.95
2022-10-28T08:15:59.318Z,15.93
2022-10-28T08:16:59.621Z,16
2022-10-28T08:18:00.298Z,15.98
2022-10-28T08:18:59.609Z,16.06
2022-10-28T08:19:59.528Z,16.08
2022-10-28T08:21:59.665Z,16.21
2022-10-28T08:23:01.683Z,16.11
2022-10-28T08:23:59.510Z,16.18
2022-10-28T08:24:59.646Z,16.11
2022-10-28T08:25:59.488Z,16.26
2022-10-28T08:26:59.516Z,16.29
2022-10-28T08:27:59.221Z,16.27
2022-10-28T08:28:59.222Z,16.27
2022-10-28T08:29:59.450Z,16.29
2022-10-28T08:31:13.466Z,16.32
2022-10-28T08:31:59.193Z,16.36
2022-10-28T08:32:59.916Z,16.34
2022-10-28T08:33:59.174Z,16.32
2022-10-28T08:34:59.168Z,16.27
2022-10-28T08:35:59.155Z,16.26
2022-10-28T08:36:59.639Z,16.34
2022-10-28T08:38:00.015Z,16.34
2022-10-28T08:38:59.146Z,16.32
2022-10-28T08:39:58.873Z,16.29
2022-10-28T08:40:59.127Z,16.3
2022-10-28T08:41:59.376Z,16.27
2022-10-28T08:42:59.365Z,16.36
2022-10-28T08:44:02.418Z,16.42
2022-10-28T08:44:59.364Z,16.49
2022-10-28T08:45:59.090Z,16.57
2022-10-28T08:46:59.124Z,16.59
2022-10-28T08:48:59.329Z,16.67
2022-10-28T08:49:59.316Z,16.7
2022-10-28T08:50:59.059Z,16.7
2022-10-28T08:51:59.064Z,16.72
2022-10-28T08:53:00.066Z,16.7
2022-10-28T08:53:59.367Z,16.7
2022-10-28T08:54:59.300Z,16.8
2022-10-28T08:55:59.031Z,16.76
2022-10-28T08:56:58.761Z,16.8
2022-10-28T08:57:58.761Z,16.74
2022-10-28T08:58:59.271Z,16.72
2022-10-28T08:59:58.996Z,16.62
2022-10-28T09:00:59.228Z,16.62
2022-10-28T09:01:59.979Z,16.59
2022-10-28T09:03:00.038Z,16.65
2022-10-28T09:03:58.970Z,16.67
2022-10-28T09:04:58.983Z,16.62
2022-10-28T09:05:59.218Z,16.59
2022-10-28T09:06:59.218Z,16.62
2022-10-28T09:07:59.202Z,16.65
2022-10-28T09:08:58.682Z,16.69
2022-10-28T09:09:59.303Z,16.66
2022-10-28T09:10:58.969Z,16.65
2022-10-28T09:11:59.175Z,16.7
2022-10-28T09:12:59.352Z,16.81
2022-10-28T09:13:59.187Z,16.88
2022-10-28T09:14:58.894Z,16.9
2022-10-28T09:15:58.887Z,16.99
2022-10-28T09:16:59.141Z,17.06
2022-10-28T09:17:59.926Z,17.09
2022-10-28T09:18:59.134Z,17.13
2022-10-28T09:19:58.705Z,17.21
2022-10-28T09:20:59.123Z,17.36
2022-10-28T09:21:58.603Z,17.55
2022-10-28T09:22:59.782Z,17.52
2022-10-28T09:23:58.844Z,17.68
2022-10-28T09:24:58.830Z,17.83
2022-10-28T09:25:59.156Z,17.95
2022-10-28T09:26:59.077Z,18.11
2022-10-28T09:27:59.848Z,18.08
2022-10-28T09:28:59.314Z,18.23
2022-10-28T09:29:58.820Z,18.2
2022-10-28T09:30:59.058Z,18.32
2022-10-28T09:31:58.798Z,18.24
2022-10-28T09:32:59.807Z,18.23
2022-10-28T09:33:59.041Z,18.2
2022-10-28T09:34:58.770Z,18.26
2022-10-28T09:35:58.791Z,18.24
2022-10-28T09:36:59.019Z,18.24
2022-10-28T09:37:58.769Z,18.32
2022-10-28T09:38:59.002Z,18.31
2022-10-28T09:39:58.752Z,18.38
2022-10-28T09:40:58.997Z,18.44
2022-10-28T09:41:59.084Z,18.54
2022-10-28T09:42:58.480Z,18.53
2022-10-28T09:43:58.727Z,18.69
2022-10-28T09:44:58.720Z,18.65
2022-10-28T09:45:59.012Z,18.79
2022-10-28T09:46:58.962Z,18.76
2022-10-28T09:47:59.403Z,18.81
2022-10-28T09:48:58.949Z,18.79
2022-10-28T09:49:58.437Z,18.78
2022-10-28T09:50:58.979Z,18.82
2022-10-28T09:51:58.704Z,18.76
2022-10-28T09:52:58.683Z,18.87
2022-10-28T09:53:58.937Z,18.93
2022-10-28T09:54:58.973Z,18.97
2022-10-28T09:55:59.607Z,19
2022-10-28T09:56:59.715Z,19.02
2022-10-28T09:58:00.609Z,19.09
2022-10-28T09:58:59.712Z,19.13
2022-10-28T09:59:59.439Z,19.17
2022-10-28T10:00:59.701Z,19.25
2022-10-28T10:02:00.112Z,19.34
2022-10-28T10:02:59.957Z,19.42
2022-10-28T10:03:59.681Z,19.53
2022-10-28T10:04:59.478Z,19.57
2022-10-28T10:05:59.674Z,19.57
2022-10-28T10:06:59.425Z,19.55
2022-10-28T10:08:00.429Z,19.56
2022-10-28T10:08:59.142Z,19.53
2022-10-28T10:09:59.815Z,19.47
2022-10-28T10:10:59.166Z,19.43
2022-10-28T10:11:59.657Z,19.24
2022-10-28T10:13:00.579Z,19.28
2022-10-28T10:13:59.712Z,19.19
2022-10-28T10:14:59.716Z,19.05
2022-10-28T10:15:59.625Z,19.05
2022-10-28T10:16:59.633Z,18.99
2022-10-28T10:17:59.857Z,18.96
2022-10-28T10:18:59.847Z,18.86
2022-10-28T10:19:59.836Z,18.79
2022-10-28T10:20:59.835Z,18.74
2022-10-28T10:21:59.829Z,18.69
2022-10-28T10:23:00.375Z,18.65
2022-10-28T10:23:59.836Z,18.69
2022-10-28T10:25:00.290Z,18.63
2022-10-28T10:25:59.562Z,18.66
2022-10-28T10:26:59.832Z,18.68
2022-10-28T10:28:00.440Z,18.61
2022-10-28T10:28:59.805Z,18.61
2022-10-28T10:30:00.137Z,18.65
2022-10-28T10:31:00.047Z,18.66
2022-10-28T10:31:59.783Z,18.69
2022-10-28T10:33:00.035Z,18.68
2022-10-28T10:33:59.528Z,18.65
2022-10-28T10:35:00.080Z,18.54
2022-10-28T10:36:04.419Z,18.53
2022-10-28T10:36:59.879Z,18.56
2022-10-28T10:38:00.358Z,18.5
2022-10-28T10:38:59.756Z,18.53
2022-10-28T10:40:00.002Z,18.59
2022-10-28T10:41:00.006Z,18.53
2022-10-28T10:41:59.736Z,18.49
2022-10-28T10:43:18.227Z,18.41
2022-10-28T10:44:00.154Z,18.53
2022-10-28T10:44:59.820Z,18.44
2022-10-28T10:46:00.059Z,18.47
2022-10-28T10:47:04.933Z,18.44
2022-10-28T10:48:00.566Z,18.45
2022-10-28T10:48:59.704Z,18.53
2022-10-28T10:49:59.706Z,18.49
2022-10-28T10:50:59.699Z,18.57
2022-10-28T10:52:00.043Z,18.6
2022-10-28T10:53:00.026Z,18.63
2022-10-28T10:53:59.936Z,18.69
2022-10-28T10:54:59.929Z,18.74
2022-10-28T10:55:59.917Z,18.89
2022-10-28T10:57:00.147Z,18.91
2022-10-28T10:58:00.395Z,19
2022-10-28T10:58:59.914Z,19.05
2022-10-28T10:59:59.643Z,19.23
2022-10-28T11:00:59.396Z,19.25
2022-10-28T11:02:00.562Z,19.38
2022-10-28T11:03:00.835Z,19.37
2022-10-28T11:04:00.576Z,19.47
2022-10-28T11:04:59.917Z,19.46
2022-10-28T11:06:27.256Z,19.56
2022-10-28T11:06:59.354Z,19.65
2022-10-28T11:08:00.541Z,19.74
2022-10-28T11:08:59.891Z,19.89
2022-10-28T11:09:59.855Z,20.02
2022-10-28T11:10:59.591Z,20.15
2022-10-28T11:11:59.586Z,20.42
2022-10-28T11:13:00.375Z,20.51
2022-10-28T11:13:59.588Z,20.61
2022-10-28T11:14:59.322Z,20.58
2022-10-28T11:15:59.594Z,20.57
2022-10-28T11:16:59.838Z,20.61
2022-10-28T11:18:00.639Z,20.53
2022-10-28T11:18:59.325Z,20.53
2022-10-28T11:19:59.815Z,20.44
2022-10-28T11:20:59.814Z,20.38
2022-10-28T11:21:59.844Z,20.32
2022-10-28T11:23:00.254Z,20.22
2022-10-28T11:23:59.811Z,20.16
2022-10-28T11:24:59.857Z,20.05
2022-10-28T11:25:59.544Z,20.12
2022-10-28T11:26:59.586Z,20.02
2022-10-28T11:28:06.121Z,20.01
2022-10-28T11:28:59.526Z,19.95
2022-10-28T11:29:59.521Z,19.95
2022-10-28T11:30:59.716Z,19.8
2022-10-28T11:31:59.767Z,19.95
2022-10-28T11:33:37.814Z,19.82
2022-10-28T11:33:59.789Z,19.92
2022-10-28T11:34:59.409Z,19.85
2022-10-28T11:35:59.749Z,19.86
2022-10-28T11:36:59.750Z,19.89
2022-10-28T11:37:59.491Z,19.92
2022-10-28T11:38:59.503Z,20.04
2022-10-28T11:39:59.738Z,20.1
2022-10-28T11:40:59.479Z,20.26
2022-10-28T11:41:59.488Z,20.38
2022-10-28T11:43:00.672Z,20.49
2022-10-28T11:44:07.744Z,20.49
2022-10-28T11:44:59.382Z,20.41
2022-10-28T11:45:59.465Z,20.25
2022-10-28T11:47:06.305Z,20.1
2022-10-28T11:48:00.064Z,20.04
2022-10-28T11:48:59.759Z,19.98
2022-10-28T11:49:59.466Z,19.85
2022-10-28T11:50:59.434Z,19.83
2022-10-28T11:51:59.264Z,19.87
2022-10-28T11:52:59.423Z,19.92
2022-10-28T11:53:59.682Z,19.9
2022-10-28T11:54:59.875Z,19.79
2022-10-28T11:55:59.672Z,19.86
2022-10-28T11:56:59.410Z,19.85
2022-10-28T11:58:00.413Z,19.87
2022-10-28T11:58:59.403Z,19.93
2022-10-28T11:59:59.148Z,19.87
2022-10-28T12:00:59.407Z,19.95
2022-10-28T12:02:00.354Z,20.01
2022-10-28T12:03:01.040Z,20.07
2022-10-28T12:03:59.654Z,20.16
2022-10-28T12:04:59.449Z,20.18
2022-10-28T12:05:59.412Z,20.26
2022-10-28T12:06:59.633Z,20.3
2022-10-28T12:07:59.623Z,20.27
2022-10-28T12:08:59.510Z,20.16
2022-10-28T12:09:59.615Z,20.12
2022-10-28T12:10:59.360Z,20.15
2022-10-28T12:11:59.368Z,20.16
2022-10-28T12:13:00.728Z,20.19
2022-10-28T12:13:59.800Z,20.1
2022-10-28T12:14:59.610Z,20.1
2022-10-28T12:15:59.596Z,20
2022-10-28T12:16:59.330Z,19.98
2022-10-28T12:18:00.222Z,20
2022-10-28T12:18:59.593Z,19.95
2022-10-28T12:19:59.589Z,19.95
2022-10-28T12:20:59.854Z,19.95
2022-10-28T12:21:59.596Z,19.9
2022-10-28T12:23:00.072Z,19.82
2022-10-28T12:23:59.321Z,19.78
2022-10-28T12:24:59.259Z,19.71
2022-10-28T12:25:59.321Z,19.74
2022-10-28T12:26:59.556Z,19.71
2022-10-28T12:27:59.337Z,19.71
2022-10-28T12:28:59.032Z,19.72
2022-10-28T12:29:59.292Z,19.67
2022-10-28T12:30:59.275Z,19.7
2022-10-28T12:31:59.537Z,19.63
2022-10-28T12:32:59.990Z,19.63
2022-10-28T12:33:59.264Z,19.53
2022-10-28T12:34:59.259Z,19.63
2022-10-28T12:35:59.521Z,19.52
2022-10-28T12:36:59.574Z,19.55
2022-10-28T12:38:00.234Z,19.6
2022-10-28T12:38:59.250Z,19.56
2022-10-28T12:39:59.505Z,19.65
2022-10-28T12:40:59.499Z,19.6
2022-10-28T12:41:59.499Z,19.53
2022-10-28T12:43:00.099Z,19.52
2022-10-28T12:43:59.481Z,19.5
2022-10-28T12:44:59.674Z,19.37
2022-10-28T12:45:59.473Z,19.32
2022-10-28T12:46:59.224Z,19.31
2022-10-28T12:48:00.663Z,19.27
2022-10-28T12:48:59.201Z,19.28
2022-10-28T12:49:59.210Z,19.15
2022-10-28T12:50:59.455Z,19.24
2022-10-28T12:51:59.458Z,19.17
2022-10-28T12:52:59.235Z,19.17
2022-10-28T12:53:59.469Z,19.17
2022-10-28T12:54:59.323Z,19.16
2022-10-28T12:55:59.605Z,19.2
2022-10-28T12:56:59.424Z,19.13
2022-10-28T12:58:00.479Z,19.15
2022-10-28T12:58:59.644Z,19.16
2022-10-28T12:59:59.157Z,19.27
2022-10-28T13:00:59.333Z,19.27
2022-10-28T13:01:59.860Z,19.34
2022-10-28T13:03:00.064Z,19.34
2022-10-28T13:03:59.141Z,19.3
2022-10-28T13:04:59.388Z,19.45
2022-10-28T13:05:59.126Z,19.46
2022-10-28T13:06:59.122Z,19.46
2022-10-28T13:08:04.115Z,19.45
2022-10-28T13:08:58.849Z,19.52
2022-10-28T13:09:59.136Z,19.47
2022-10-28T13:10:59.099Z,19.5
2022-10-28T13:11:59.111Z,19.57
2022-10-28T13:12:59.583Z,19.57
2022-10-28T13:13:59.691Z,19.63
2022-10-28T13:14:59.544Z,19.53
2022-10-28T13:15:59.085Z,19.64